Terminal Aerodrome Forecast
Issued by NWS Louisville, KY

Home | Current Version | Previous Version | Text Only | Print | Product List | Glossary On
Versions: 1 2 3 4 5 6 7 8 9 10 11 12 13 14 15
000
FTUS43 KLMK 260500
TAFBWG
TAF
KBWG 260524Z 2606/2706 34007KT P6SM OVC005
     FM261500 01009KT P6SM BKN015
     FM261900 01008KT P6SM BKN025
     FM262100 36010KT P6SM SCT035=

USA.gov is the U.S. government's official web portal to all federal, state and local government web resources and services.